createdAt,value
2022-10-05T00:00:56.961Z,100.00
2022-10-05T00:03:24.740Z,100.00
2022-10-05T00:05:51.061Z,100.00
2022-10-05T00:08:18.129Z,100.00
2022-10-05T00:10:44.650Z,100.00
2022-10-05T00:13:21.672Z,100.00
2022-10-05T00:15:48.145Z,100.00
2022-10-05T00:18:18.465Z,100.00
2022-10-05T00:20:44.974Z,100.00
2022-10-05T00:23:16.377Z,100.00
2022-10-05T00:25:42.700Z,100.00
2022-10-05T00:28:19.776Z,100.00
2022-10-05T00:30:46.207Z,100.00
2022-10-05T00:33:12.534Z,100.00
2022-10-05T00:35:39.801Z,100.00
2022-10-05T00:38:06.229Z,100.00
2022-10-05T00:40:35.903Z,100.00
2022-10-05T00:43:08.510Z,100.00
2022-10-05T00:45:38.128Z,100.00
2022-10-05T00:48:19.920Z,100.00
2022-10-05T00:50:53.328Z,100.00
2022-10-05T00:53:22.912Z,100.00
2022-10-05T00:56:01.263Z,100.00
2022-10-05T00:58:46.547Z,100.00
2022-10-05T01:01:13.796Z,100.00
2022-10-05T01:03:46.159Z,100.00
2022-10-05T01:06:22.600Z,100.00
2022-10-05T01:08:52.814Z,100.00
2022-10-05T01:11:20.563Z,100.00
2022-10-05T01:14:05.403Z,100.00
2022-10-05T01:16:41.363Z,100.00
2022-10-05T01:19:16.216Z,100.00
2022-10-05T01:21:49.295Z,100.00
2022-10-05T01:24:18.671Z,100.00
2022-10-05T01:27:01.353Z,100.00
2022-10-05T01:29:43.089Z,100.00
2022-10-05T01:32:09.398Z,100.00
2022-10-05T01:34:59.284Z,100.00
2022-10-05T01:37:44.177Z,100.00
2022-10-05T01:40:24.041Z,100.00
2022-10-05T01:42:56.959Z,100.00
2022-10-05T01:45:29.303Z,100.00
2022-10-05T01:47:55.685Z,100.00
2022-10-05T01:50:44.760Z,100.00
2022-10-05T01:53:21.046Z,100.00
2022-10-05T01:55:47.326Z,100.00
2022-10-05T01:58:33.921Z,100.00
2022-10-05T02:01:01.320Z,100.00
2022-10-05T02:03:29.001Z,100.00
2022-10-05T02:05:56.673Z,100.00
2022-10-05T02:08:30.182Z,100.00
2022-10-05T02:11:05.236Z,100.00
2022-10-05T02:13:40.684Z,100.00
2022-10-05T02:16:11.260Z,100.00
2022-10-05T02:18:38.948Z,100.00
2022-10-05T02:21:05.279Z,100.00
2022-10-05T02:23:32.910Z,100.00
2022-10-05T02:25:59.280Z,100.00
2022-10-05T02:28:44.987Z,100.00
2022-10-05T02:31:12.838Z,100.00
2022-10-05T02:33:39.251Z,100.00
2022-10-05T02:36:14.810Z,100.00
2022-10-05T02:38:47.244Z,100.00
2022-10-05T02:41:13.512Z,100.00
2022-10-05T02:43:49.100Z,100.00
2022-10-05T02:46:21.472Z,100.00
2022-10-05T02:48:50.659Z,100.00
2022-10-05T02:51:20.029Z,100.00
2022-10-05T02:53:58.909Z,100.00
2022-10-05T02:56:28.349Z,100.00
2022-10-05T02:58:57.425Z,100.00
2022-10-05T03:01:38.621Z,100.00
2022-10-05T03:04:14.488Z,100.00
2022-10-05T03:06:51.780Z,100.00
2022-10-05T03:09:18.114Z,100.00
2022-10-05T03:11:51.553Z,100.00
2022-10-05T03:14:23.080Z,100.00
2022-10-05T03:16:52.383Z,100.00
2022-10-05T03:19:18.758Z,100.00
2022-10-05T03:22:03.929Z,100.00
2022-10-05T03:24:34.575Z,100.00
2022-10-05T03:27:01.137Z,100.00
2022-10-05T03:29:27.430Z,100.00
2022-10-05T03:31:56.709Z,100.00
2022-10-05T03:34:35.224Z,100.00
2022-10-05T03:37:07.226Z,100.00
2022-10-05T03:39:41.135Z,100.00
2022-10-05T03:42:16.301Z,100.00
2022-10-05T03:44:44.519Z,100.00
2022-10-05T03:47:15.346Z,100.00
2022-10-05T03:49:54.001Z,100.00
2022-10-05T03:52:26.164Z,100.00
2022-10-05T03:54:54.667Z,100.00
2022-10-05T03:57:21.896Z,100.00
2022-10-05T03:59:59.790Z,100.00
2022-10-05T04:02:44.943Z,100.00
2022-10-05T04:05:12.361Z,100.00
2022-10-05T04:07:38.655Z,100.00
2022-10-05T04:10:06.982Z,100.00
2022-10-05T04:12:34.725Z,100.00
2022-10-05T04:15:03.668Z,100.00
2022-10-05T04:17:33.247Z,100.00
2022-10-05T04:20:04.440Z,100.00
2022-10-05T04:22:41.040Z,100.00
2022-10-05T04:25:07.485Z,100.00
2022-10-05T04:27:34.797Z,100.00
2022-10-05T04:30:08.062Z,100.00
2022-10-05T04:32:37.896Z,100.00
2022-10-05T04:35:23.107Z,100.00
2022-10-05T04:38:08.223Z,100.00
2022-10-05T04:40:38.772Z,100.00
2022-10-05T04:43:05.121Z,100.00
2022-10-05T04:45:43.338Z,100.00
2022-10-05T04:48:09.866Z,100.00
2022-10-05T04:50:36.177Z,100.00
2022-10-05T04:53:05.558Z,100.00
2022-10-05T04:55:36.359Z,100.00
2022-10-05T04:58:09.591Z,100.00
2022-10-05T05:00:45.276Z,100.00
2022-10-05T05:03:15.679Z,100.00
2022-10-05T05:06:12.096Z,100.00
2022-10-05T05:08:53.087Z,100.00
2022-10-05T05:11:29.139Z,100.00
2022-10-05T05:14:01.630Z,100.00
2022-10-05T05:16:41.296Z,100.00
2022-10-05T05:19:16.798Z,100.00
2022-10-05T05:21:46.223Z,100.00
2022-10-05T05:24:19.900Z,100.00
2022-10-05T05:26:49.426Z,100.00
2022-10-05T05:29:28.382Z,100.00
2022-10-05T05:32:01.048Z,100.00
2022-10-05T05:34:27.408Z,100.00
2022-10-05T05:36:56.899Z,100.00
2022-10-05T05:39:29.663Z,100.00
2022-10-05T05:41:59.292Z,100.00
2022-10-05T05:44:28.685Z,100.00
2022-10-05T05:47:05.303Z,100.00
2022-10-05T05:49:50.891Z,100.00
2022-10-05T05:52:22.367Z,100.00
2022-10-05T05:54:48.649Z,100.00
2022-10-05T05:57:27.048Z,100.00
2022-10-05T06:00:12.172Z,100.00
2022-10-05T06:02:40.638Z,100.00
2022-10-05T06:05:14.564Z,100.00
2022-10-05T06:07:40.896Z,100.00
2022-10-05T06:10:36.793Z,100.00
2022-10-05T06:13:04.971Z,100.00
2022-10-05T06:15:52.396Z,100.00
2022-10-05T06:18:19.639Z,100.00
2022-10-05T06:20:49.217Z,100.00
2022-10-05T06:23:17.504Z,100.00
2022-10-05T06:25:46.337Z,100.00
2022-10-05T06:28:13.041Z,100.00
2022-10-05T06:30:51.822Z,100.00
2022-10-05T06:33:30.135Z,100.00
2022-10-05T06:35:59.607Z,100.00
2022-10-05T06:38:34.728Z,100.00
2022-10-05T06:41:21.080Z,100.00
2022-10-05T06:43:47.426Z,100.00
2022-10-05T06:46:32.656Z,100.00
2022-10-05T06:48:59.343Z,100.00
2022-10-05T06:51:37.914Z,100.00
2022-10-05T06:54:23.250Z,100.00
2022-10-05T06:56:56.341Z,100.00
2022-10-05T06:59:28.583Z,100.00
2022-10-05T07:01:58.013Z,100.00
2022-10-05T07:04:34.601Z,100.00
2022-10-05T07:07:04.201Z,100.00
2022-10-05T07:09:30.481Z,100.00
2022-10-05T07:12:05.376Z,100.00
2022-10-05T07:14:32.177Z,100.00
2022-10-05T07:17:01.480Z,100.00
2022-10-05T07:19:33.332Z,100.00
2022-10-05T07:22:04.831Z,100.00
2022-10-05T07:24:59.065Z,100.00
2022-10-05T07:27:25.807Z,100.00
2022-10-05T07:29:59.940Z,100.00
2022-10-05T07:32:33.959Z,100.00
2022-10-05T07:35:38.186Z,100.00
2022-10-05T07:38:08.017Z,100.00
2022-10-05T07:40:40.492Z,100.00
2022-10-05T07:43:14.388Z,100.00
2022-10-05T07:45:48.053Z,100.00
2022-10-05T07:48:26.661Z,100.00
2022-10-05T07:51:11.825Z,100.00
2022-10-05T07:53:39.466Z,100.00
2022-10-05T07:56:25.920Z,100.00
2022-10-05T07:58:54.603Z,100.00
2022-10-05T08:01:24.066Z,100.00
2022-10-05T08:03:52.294Z,100.00
2022-10-05T08:06:30.165Z,100.00
2022-10-05T08:08:57.433Z,100.00
2022-10-05T08:11:28.002Z,100.00
2022-10-05T08:14:02.269Z,100.00
2022-10-05T08:16:30.796Z,100.00
2022-10-05T08:19:06.738Z,100.00
2022-10-05T08:21:34.103Z,100.00
2022-10-05T08:24:26.862Z,100.00
2022-10-05T08:27:06.728Z,100.00
2022-10-05T08:29:35.302Z,100.00
2022-10-05T08:32:02.567Z,100.00
2022-10-05T08:34:34.987Z,100.00
2022-10-05T08:37:14.611Z,100.00
2022-10-05T08:39:42.532Z,100.00
2022-10-05T08:42:18.276Z,100.00
2022-10-05T08:44:49.141Z,100.00
2022-10-05T08:47:27.990Z,100.00
2022-10-05T08:49:57.305Z,100.00
2022-10-05T08:52:38.811Z,100.00
2022-10-05T08:55:14.233Z,100.00
2022-10-05T08:57:47.278Z,100.00
2022-10-05T09:00:19.912Z,100.00
2022-10-05T09:03:01.699Z,100.00
2022-10-05T09:05:46.940Z,100.00
2022-10-05T09:08:27.596Z,100.00
2022-10-05T09:11:03.816Z,100.00
2022-10-05T09:13:56.594Z,100.00
2022-10-05T09:16:26.585Z,100.00
2022-10-05T09:19:11.546Z,100.00
2022-10-05T09:21:37.845Z,100.00
2022-10-05T09:24:10.376Z,100.00
2022-10-05T09:26:39.659Z,100.00
2022-10-05T09:29:21.423Z,100.00
2022-10-05T09:32:10.752Z,100.00
2022-10-05T09:34:49.191Z,100.00
2022-10-05T09:37:20.121Z,100.00
2022-10-05T09:40:05.313Z,100.00
2022-10-05T09:42:34.623Z,100.00
2022-10-05T09:45:01.589Z,100.00
2022-10-05T09:47:45.118Z,100.00
2022-10-05T09:50:30.292Z,100.00
2022-10-05T09:52:59.349Z,100.00
2022-10-05T09:55:25.642Z,100.00
2022-10-05T09:57:54.972Z,100.00
2022-10-05T10:00:23.178Z,100.00
2022-10-05T10:03:05.344Z,100.00
2022-10-05T10:05:39.198Z,100.00
2022-10-05T10:08:24.455Z,100.00
2022-10-05T10:11:00.369Z,100.00
2022-10-05T10:13:45.705Z,100.00
2022-10-05T10:16:30.608Z,100.00
2022-10-05T10:19:06.059Z,100.00
2022-10-05T10:21:53.130Z,100.00
2022-10-05T10:24:28.791Z,100.00
2022-10-05T10:26:58.126Z,100.00
2022-10-05T10:32:06.531Z,100.00
2022-10-05T10:34:41.514Z,100.00
2022-10-05T10:37:28.065Z,100.00
2022-10-05T10:39:57.488Z,100.00
2022-10-05T10:42:36.048Z,100.00
2022-10-05T10:45:12.579Z,100.00
2022-10-05T10:48:00.195Z,100.00
2022-10-05T10:50:45.342Z,100.00
2022-10-05T10:53:11.904Z,100.00
2022-10-05T10:55:57.115Z,100.00
2022-10-05T10:58:34.901Z,100.00
2022-10-05T11:01:13.303Z,100.00
2022-10-05T11:03:45.804Z,100.00
2022-10-05T11:06:33.096Z,100.00
2022-10-05T11:09:05.524Z,100.00
2022-10-05T11:11:31.818Z,100.00
2022-10-05T11:14:08.767Z,100.00
2022-10-05T11:16:38.303Z,100.00
2022-10-05T11:19:04.637Z,97.82
2022-10-05T11:21:34.177Z,97.81
2022-10-05T11:24:06.613Z,98.12
2022-10-05T11:26:35.972Z,98.23
2022-10-05T11:29:21.143Z,96.88
2022-10-05T11:31:47.946Z,99.42
2022-10-05T11:34:17.586Z,98.10
2022-10-05T11:36:51.909Z,98.00
2022-10-05T11:39:33.562Z,99.46
2022-10-05T11:42:14.032Z,99.77
2022-10-05T11:44:56.950Z,96.78
2022-10-05T11:47:24.617Z,98.25
2022-10-05T11:49:51.038Z,96.15
2022-10-05T11:52:33.520Z,96.55
2022-10-05T11:55:15.909Z,96.49
2022-10-05T11:57:49.253Z,97.69
2022-10-05T12:00:22.626Z,96.14
2022-10-05T12:03:09.625Z,95.60
2022-10-05T12:05:38.769Z,96.12
2022-10-05T12:08:23.960Z,95.51
2022-10-05T12:10:59.433Z,95.57
2022-10-05T12:13:30.179Z,92.62
2022-10-05T12:16:02.525Z,93.25
2022-10-05T12:18:32.566Z,93.78
2022-10-05T12:21:05.593Z,91.69
2022-10-05T12:23:37.172Z,91.06
2022-10-05T12:26:04.129Z,93.07
2022-10-05T12:28:36.212Z,91.33
2022-10-05T12:31:02.638Z,91.45
2022-10-05T12:33:32.076Z,90.63
2022-10-05T12:36:01.430Z,88.97
2022-10-05T12:38:46.995Z,89.40
2022-10-05T12:41:19.558Z,88.46
2022-10-05T12:44:04.611Z,88.02
2022-10-05T12:46:35.850Z,83.04
2022-10-05T12:49:08.373Z,80.42
2022-10-05T12:51:36.836Z,80.76
2022-10-05T12:54:06.348Z,79.95
2022-10-05T12:56:43.284Z,78.79
2022-10-05T12:59:14.312Z,78.88
2022-10-05T13:01:47.299Z,76.98
2022-10-05T13:04:17.468Z,74.50
2022-10-05T13:06:50.060Z,77.00
2022-10-05T13:09:18.732Z,74.17
2022-10-05T13:11:49.455Z,72.97
2022-10-05T13:14:25.079Z,72.76
2022-10-05T13:16:55.269Z,73.51
2022-10-05T13:19:24.795Z,73.41
2022-10-05T13:21:55.218Z,72.61
2022-10-05T13:24:40.390Z,72.78
2022-10-05T13:27:15.861Z,73.18
2022-10-05T13:29:42.807Z,74.07
2022-10-05T13:32:29.466Z,72.46
2022-10-05T13:35:15.344Z,73.66
2022-10-05T13:37:42.834Z,73.20
2022-10-05T13:40:28.014Z,73.46
2022-10-05T13:43:06.661Z,74.30
2022-10-05T13:45:39.237Z,73.73
2022-10-05T13:48:14.678Z,73.17
2022-10-05T13:50:44.162Z,74.75
2022-10-05T13:53:24.543Z,76.02
2022-10-05T13:56:01.193Z,76.16
2022-10-05T13:58:47.692Z,77.71
2022-10-05T14:01:17.743Z,78.08
2022-10-05T14:04:03.120Z,77.10
2022-10-05T14:06:30.636Z,78.32
2022-10-05T14:09:03.086Z,77.91
2022-10-05T14:11:33.487Z,76.97
2022-10-05T14:14:02.874Z,77.67
2022-10-05T14:16:30.542Z,76.45
2022-10-05T14:18:56.904Z,76.68
2022-10-05T14:21:26.952Z,77.94
2022-10-05T14:23:53.336Z,79.04
2022-10-05T14:26:25.698Z,81.12
2022-10-05T14:28:58.903Z,83.41
2022-10-05T14:31:37.075Z,84.32
2022-10-05T14:34:26.864Z,86.18
2022-10-05T14:37:02.992Z,87.87
2022-10-05T14:39:30.507Z,89.42
2022-10-05T14:41:56.846Z,90.81
2022-10-05T14:44:27.296Z,90.74
2022-10-05T14:46:54.620Z,91.68
2022-10-05T14:49:24.177Z,92.04
2022-10-05T14:51:50.531Z,92.15
2022-10-05T14:54:22.950Z,92.37
2022-10-05T14:56:58.994Z,93.13
2022-10-05T14:59:29.509Z,94.55
2022-10-05T15:02:20.025Z,94.22
2022-10-05T15:05:07.085Z,94.72
2022-10-05T15:07:38.834Z,94.22
2022-10-05T15:10:28.135Z,94.14
2022-10-05T15:12:55.171Z,93.82
2022-10-05T15:15:25.617Z,94.17
2022-10-05T15:17:54.385Z,94.32
2022-10-05T15:20:24.514Z,94.56
2022-10-05T15:22:57.566Z,95.46
2022-10-05T15:25:27.102Z,94.76
2022-10-05T15:28:00.282Z,94.94
2022-10-05T15:30:26.618Z,94.28
2022-10-05T15:32:56.043Z,94.97
2022-10-05T15:35:28.471Z,95.93
2022-10-05T15:37:55.163Z,96.30
2022-10-05T15:40:24.513Z,96.91
2022-10-05T15:42:52.654Z,97.01
2022-10-05T15:45:23.468Z,97.09
2022-10-05T15:47:53.406Z,98.09
2022-10-05T15:50:21.803Z,98.18
2022-10-05T15:53:17.601Z,97.65
2022-10-05T15:55:56.573Z,97.88
2022-10-05T15:58:39.525Z,97.67
2022-10-05T16:01:21.119Z,97.90
2022-10-05T16:03:53.711Z,98.63
2022-10-05T16:06:45.285Z,99.12
2022-10-05T16:09:28.052Z,99.65
2022-10-05T16:12:13.480Z,95.34
2022-10-05T16:14:58.262Z,95.30
2022-10-05T16:17:24.584Z,96.16
2022-10-05T16:20:03.313Z,97.71
2022-10-05T16:22:39.918Z,97.20
2022-10-05T16:25:24.611Z,98.43
2022-10-05T16:27:58.721Z,98.60
2022-10-05T16:30:28.514Z,98.85
2022-10-05T16:32:57.865Z,98.53
2022-10-05T16:35:29.065Z,98.29
2022-10-05T16:38:09.744Z,98.43
2022-10-05T16:41:01.977Z,99.01
2022-10-05T16:43:34.801Z,99.36
2022-10-05T16:46:19.120Z,99.59
2022-10-05T16:48:48.194Z,99.73
2022-10-05T16:51:19.353Z,99.91
2022-10-05T16:53:49.337Z,100.00
2022-10-05T16:56:16.868Z,100.00
2022-10-05T16:58:46.175Z,100.00
2022-10-05T17:01:24.249Z,100.00
2022-10-05T17:03:54.766Z,100.00
2022-10-05T17:06:34.592Z,100.00
2022-10-05T17:09:10.038Z,100.00
2022-10-05T17:11:39.436Z,100.00
2022-10-05T17:14:18.164Z,100.00
2022-10-05T17:16:47.940Z,100.00
2022-10-05T17:19:20.335Z,100.00
2022-10-05T17:22:02.230Z,100.00
2022-10-05T17:24:30.314Z,100.00
2022-10-05T17:27:15.956Z,100.00
2022-10-05T17:29:42.259Z,100.00
2022-10-05T17:32:15.682Z,100.00
2022-10-05T17:35:02.078Z,100.00
2022-10-05T17:37:31.960Z,100.00
2022-10-05T17:39:58.967Z,100.00
2022-10-05T17:42:31.269Z,100.00
2022-10-05T17:44:57.835Z,100.00
2022-10-05T17:47:47.354Z,100.00
2022-10-05T17:50:32.570Z,100.00
2022-10-05T17:53:35.121Z,100.00
2022-10-05T17:56:02.504Z,100.00
2022-10-05T17:58:32.000Z,100.00
2022-10-05T18:00:58.389Z,100.00
2022-10-05T18:03:33.991Z,100.00
2022-10-05T18:06:28.320Z,100.00
2022-10-05T18:09:13.585Z,100.00
2022-10-05T18:11:43.542Z,100.00
2022-10-05T18:14:19.814Z,100.00
2022-10-05T18:16:59.369Z,100.00
2022-10-05T18:19:25.738Z,100.00
2022-10-05T18:21:59.382Z,100.00
2022-10-05T18:24:33.367Z,100.00
2022-10-05T18:27:18.494Z,100.00
2022-10-05T18:30:05.244Z,100.00
2022-10-05T18:32:38.069Z,100.00
2022-10-05T18:35:11.315Z,100.00
2022-10-05T18:37:56.708Z,100.00
2022-10-05T18:40:26.481Z,100.00
2022-10-05T18:42:56.041Z,100.00
2022-10-05T18:45:23.973Z,100.00
2022-10-05T18:47:56.435Z,100.00
2022-10-05T18:50:22.790Z,100.00
2022-10-05T18:53:00.751Z,100.00
2022-10-05T18:55:36.095Z,100.00
2022-10-05T18:58:18.181Z,100.00
2022-10-05T19:00:51.338Z,100.00
2022-10-05T19:03:17.695Z,100.00
2022-10-05T19:05:48.700Z,100.00
2022-10-05T19:08:15.489Z,100.00
2022-10-05T19:10:45.600Z,100.00
2022-10-05T19:13:16.026Z,100.00
2022-10-05T19:15:45.149Z,100.00
2022-10-05T19:18:21.513Z,100.00
2022-10-05T19:21:06.883Z,100.00
2022-10-05T19:23:47.646Z,100.00
2022-10-05T19:26:15.367Z,100.00
2022-10-05T19:28:58.306Z,100.00
2022-10-05T19:31:27.869Z,100.00
2022-10-05T19:34:16.346Z,100.00
2022-10-05T19:36:52.802Z,100.00
2022-10-05T19:39:38.080Z,100.00
2022-10-05T19:42:10.747Z,100.00
2022-10-05T19:44:38.373Z,100.00
2022-10-05T19:47:25.133Z,100.00
2022-10-05T19:49:51.415Z,100.00
2022-10-05T19:52:36.659Z,100.00
2022-10-05T19:55:17.127Z,100.00
2022-10-05T19:57:47.607Z,100.00
2022-10-05T20:00:24.597Z,100.00
2022-10-05T20:02:52.224Z,99.95
2022-10-05T20:05:19.028Z,99.73
2022-10-05T20:07:45.402Z,99.53
2022-10-05T20:10:26.668Z,100.00
2022-10-05T20:12:55.757Z,100.00
2022-10-05T20:15:45.102Z,100.00
2022-10-05T20:18:49.147Z,100.00
2022-10-05T20:21:34.118Z,100.00
2022-10-05T20:24:07.608Z,100.00
2022-10-05T20:26:56.889Z,100.00
2022-10-05T20:29:23.238Z,100.00
2022-10-05T20:31:49.602Z,99.74
2022-10-05T20:34:17.905Z,100.00
2022-10-05T20:36:45.920Z,100.00
2022-10-05T20:39:15.504Z,100.00
2022-10-05T20:41:42.640Z,100.00
2022-10-05T20:44:09.160Z,100.00
2022-10-05T20:46:35.582Z,100.00
2022-10-05T20:49:02.630Z,100.00
2022-10-05T20:51:29.126Z,100.00
2022-10-05T20:53:56.030Z,100.00
2022-10-05T20:56:24.355Z,100.00
2022-10-05T20:58:50.687Z,100.00
2022-10-05T21:01:19.755Z,100.00
2022-10-05T21:03:46.539Z,100.00
2022-10-05T21:06:12.924Z,100.00
2022-10-05T21:08:39.264Z,100.00
2022-10-05T21:11:09.016Z,100.00
2022-10-05T21:13:35.878Z,100.00
2022-10-05T21:16:02.386Z,100.00
2022-10-05T21:18:29.147Z,100.00
2022-10-05T21:20:59.861Z,100.00
2022-10-05T21:23:29.439Z,100.00
2022-10-05T21:25:55.797Z,100.00
2022-10-05T21:28:22.412Z,100.00
2022-10-05T21:30:48.808Z,100.00
2022-10-05T21:33:15.199Z,100.00
2022-10-05T21:35:41.571Z,100.00
2022-10-05T21:38:07.890Z,99.93
2022-10-05T21:40:34.231Z,99.80
2022-10-05T21:43:00.596Z,100.00
2022-10-05T21:45:28.001Z,100.00
2022-10-05T21:47:54.356Z,100.00
2022-10-05T21:50:20.658Z,100.00
2022-10-05T21:52:47.231Z,100.00
2022-10-05T21:55:13.556Z,100.00
2022-10-05T21:57:41.191Z,100.00
2022-10-05T22:00:07.943Z,100.00
2022-10-05T22:02:34.403Z,100.00
2022-10-05T22:05:00.727Z,100.00
2022-10-05T22:07:29.222Z,100.00
2022-10-05T22:09:55.532Z,100.00
2022-10-05T22:12:21.900Z,100.00
2022-10-05T22:14:48.203Z,100.00
2022-10-05T22:17:14.824Z,99.57
2022-10-05T22:19:41.192Z,99.32
2022-10-05T22:22:11.694Z,99.52
2022-10-05T22:24:38.271Z,100.00
2022-10-05T22:27:04.593Z,100.00
2022-10-05T22:29:30.920Z,100.00
2022-10-05T22:31:57.555Z,100.00
2022-10-05T22:34:23.896Z,100.00
2022-10-05T22:36:50.312Z,100.00
2022-10-05T22:39:16.744Z,100.00
2022-10-05T22:41:43.086Z,100.00
2022-10-05T22:44:09.550Z,100.00
2022-10-05T22:46:35.892Z,99.89
2022-10-05T22:49:02.332Z,98.72
2022-10-05T22:51:28.691Z,98.21
2022-10-05T22:53:55.043Z,99.07
2022-10-05T22:56:21.366Z,98.91
2022-10-05T22:58:47.764Z,98.71
2022-10-05T23:01:14.700Z,99.04
2022-10-05T23:03:41.153Z,99.76
2022-10-05T23:06:08.983Z,100.00
2022-10-05T23:08:35.429Z,98.96
2022-10-05T23:11:04.947Z,100.00
2022-10-05T23:13:31.455Z,99.80
2022-10-05T23:15:57.784Z,99.61
2022-10-05T23:18:24.170Z,99.22
2022-10-05T23:20:54.580Z,99.19
2022-10-05T23:23:21.174Z,99.93
2022-10-05T23:25:47.493Z,100.00
2022-10-05T23:28:13.880Z,100.00
2022-10-05T23:30:40.289Z,100.00
2022-10-05T23:33:06.670Z,100.00
2022-10-05T23:35:33.019Z,100.00
2022-10-05T23:37:59.790Z,100.00
2022-10-05T23:40:26.366Z,100.00
2022-10-05T23:42:52.697Z,100.00
2022-10-05T23:45:19.072Z,100.00
2022-10-05T23:47:45.709Z,100.00
2022-10-05T23:50:12.022Z,100.00
2022-10-05T23:52:38.453Z,100.00
2022-10-05T23:55:05.067Z,100.00
2022-10-05T23:57:31.403Z,100.00
2022-10-05T23:59:58.083Z,100.00
